CYBCCYBQ

Guest
Details From CYBC - BAIE COMEAU
To CYBQ - Tadoule Lake
Flight Number -
Tags decoded
Created
Modified
Stats Distance 1,377 nm / 2,550 km
Max Altitude 0 ft / 0 m
Waypoints 5
Social Downloads 1
Likes 0
Share VATSIM

Download

Looking for another format? Having issues loading an existing format? Contact us
Advertisement - Login to hide

Notes

Requested: CYBC ROGVU 5 MIVAX SIMTO CYBQ Unmatched points: 5

Route

CYBC ROGVU MIVAX SIMTO CYBQ

ID Type Via Altitude Latitude Longitude Leg Dist Tot Dist Heading (true) Name
O CYBC APT - 0 ft / 0 m 49.13227˚ -68.20721˚ - 0 nm - BAIE COMEAU
ROGVU FIX - 0 ft / 0 m 48.85089˚ -68.21486˚ 16 nm 16 nm 181° / 181° -
MIVAX FIX - 0 ft / 0 m 47.43917˚ -70.15944˚ 115 nm 132 nm 223° / 222° -
SIMTO FIX - 0 ft / 0 m 47.05639˚ -70.82917˚ 35 nm 167 nm 230° / 230° -
O CYBQ APT - 0 ft / 0 m 58.70627˚ -98.51285˚ 1209 nm 1376 nm 315° / 293° Tadoule Lake

Altitude Profile

Advertisement - Login to hide

Weather


0- 5 10 15 20 25 30 35+ Temperature / ° C

Clouds and Precipitation
Forecast for 2017-12-18 18:00 UTC. Updated an hour ago

Ground ~20,000 ft ~40,000 ft Winds

CYBC

Details ICAO CYBC (YBC)
Name BAIE COMEAU
Region Canada
Timezone America/Montreal (UTC-5.0)
Stats Elevation 71 ft / 22 m (AMSL)
Location 49.132270° -68.207207°
Runways 1
Magnetic Variation 17.847° W

METAR

CYBC 181400Z AUTO 29003KT 9SM BKN140 M19/M23 A3009 RMK SLP193

Decode

TAF

TAF CYBC 181338Z 1814/1902 30005KT P6SM BKN150 FM181800 27006KT P6SM SCT020 TEMPO 1821/1902 5SM -SHSN BKN030 RMK FCST BASED ON AUTO OBS. NXT FCST BY 182000Z

Decode

Departure Runways

ID Width Length Bearing (true) Bearing (mag) Surface Threshold Offset Overrun Length
10 150 ft / 46 m 5,984 ft / 1,824 m 80.50° 98.35° Asphalt 0 ft / 0 m 0 ft / 0 m
28 150 ft / 46 m 5,984 ft / 1,824 m 260.52° 278.37° Asphalt 0 ft / 0 m 0 ft / 0 m

CYBQ

Details ICAO CYBQ (XTL)
Name Tadoule Lake
Region Canada
Timezone America/Winnipeg (UTC-6.0)
Stats Elevation 902 ft / 275 m (AMSL)
Location 58.706269° -98.512850°
Runways 1
Magnetic Variation 2.988° E

METAR

CYBQ 181435Z AUTO 36006KT 330V030 2 1/2SM -SN OVC025 M16/M18 A2906 RMK VIS VRB 1 1/4-3 SLP869

Decode

TAF

Not found

Destination Runways

ID Width Length Bearing (true) Bearing (mag) Surface Threshold Offset Overrun Length
07 164 ft / 50 m 3,971 ft / 1,210 m 72.58° 69.59° Dirt 0 ft / 0 m 0 ft / 0 m
25 164 ft / 50 m 3,971 ft / 1,210 m 252.60° 249.61° Dirt 0 ft / 0 m 0 ft / 0 m